Latest Coastal Weather Observations for Albany Airport

IDW60701

Issued at 1:33 pm WST Saturday 2 July 2016 (issued every 10 minutes, with the page automatically refreshed every 10 minutes)

About coastal observations | Map of coastal stations | Coastal observations for WA | Marine services | Other Formats
Station Details ID: 009999 Name: ALBANY AIRPORT Lat: -34.94 Lon: 117.82 Height: 68.4 m
Data from the previous 72 hours. | See also: Recent months at Albany Airport
Date/Time
WST
Temp
°C
Wind Pressure Rain since
9am
mm
Weather Cloud Vis
km
Sea
Height
m
Swell
Dir  Spd
kts
Gust
kts
hPa Trend Height
m
Period
s
Dir
02/01:30pm 17.8 NW 7 10 1022.1 - 0.0 - - 10 - - - -
02/01:00pm 17.3 NW 9 11 1022.6 - 0.0 - - 10 - - - -
02/12:30pm 16.9 NNW 9 11 1023.2 - 0.0 - - 10 - - - -
02/12:00pm 16.6 NW 9 11 1023.9 - 0.0 - - 10 - - - -
02/11:30am 15.9 NNW 9 12 1024.3 - 0.0 - - 10 - - - -
02/11:00am 15.1 NW 10 13 1024.7 - 0.0 - - 10 - - - -
02/10:30am 13.9 NW 8 11 1025.0 - 0.0 - - 10 - - - -
02/10:00am 13.0 NNW 9 11 1025.3 - 0.0 - - 10 - - - -
02/09:30am 11.5 NW 9 11 1025.3 - 0.0 - - 10 - - - -
02/09:00am 10.0 NNW 7 10 1025.4 - 0.2 - - 10 - - - -
02/08:30am 8.7 NNW 5 6 1025.3 - 0.2 - - 10 - - - -
02/08:00am 6.7 NNW 3 4 1025.4 - 0.2 - - 10 - - - -
02/07:30am 5.4 NNW 5 5 1025.2 - 0.2 - - 10 - - - -
02/07:00am 5.7 NW 5 6 1025.0 - 0.2 - - 10 - - - -
02/06:30am 6.6 NW 5 6 1024.9 - 0.2 - - 10 - - - -
02/06:00am 7.4 NNW 7 9 1024.8 - 0.2 - - 10 - - - -
02/05:30am 7.2 NNW 6 8 1024.4 - 0.2 - - 10 - - - -
02/05:00am 7.3 N 6 8 1024.5 - 0.2 - - 10 - - - -
02/04:30am 6.0 N 3 4 1024.8 - 0.2 - - 10 - - - -
02/04:00am 5.7 NNW 3 4 1025.2 - 0.2 - - 10 - - - -
02/03:30am 6.5 NW 3 4 1025.2 - 0.2 - - 10 - - - -
02/03:00am 6.8 NW 3 4 1025.5 - 0.2 - - 10 - - - -
02/02:30am 6.3 NW 5 5 1025.4 - 0.2 - - 10 - - - -
02/02:00am 6.7 NW 5 6 1025.2 - 0.2 - - 10 - - - -
02/01:30am 7.1 W 4 5 1025.1 - 0.2 - - 10 - - - -
02/01:00am 7.3 WNW 2 4 1025.2 - 0.2 - - 10 - - - -
02/12:30am 8.0 NW 2 4 1025.4 - 0.2 - - 10 - - - -
02/12:00am 8.5 WNW 6 6 1025.9 - 0.2 - - 10 - - - -
 
Date/Time
WST
Temp
°C
Wind Pressure Rain since
9am
mm
Weather Cloud Vis
km
Sea
Height
m
Swell
Dir  Spd
kts
Gust
kts
hPa Trend Height
m
Period
s
Dir
01/11:30pm 9.2 WNW 6 8 1025.9 - 0.2 - - 10 - - - -
01/11:00pm 8.3 NW 6 7 1026.0 - 0.2 - - 10 - - - -
01/10:30pm 9.5 W 6 8 1026.0 - 0.2 - - 10 - - - -
01/10:00pm 9.5 NW 5 6 1025.9 - 0.2 - - 10 - - - -
01/09:30pm 8.8 N 6 7 1025.8 - 0.2 - - 10 - - - -
01/09:00pm 9.3 N 5 6 1026.0 - 0.2 - - 10 - - - -
01/08:30pm 12.2 NNW 7 9 1025.8 - 0.2 - - 10 - - - -
01/08:00pm 12.9 N 6 9 1025.7 - 0.2 - Partly cloudy 10 - - - -
01/07:30pm 13.7 N 7 9 1025.7 - 0.2 - Cloudy 10 - - - -
01/07:00pm 14.3 NNW 6 8 1025.6 - 0.2 - Cloudy 10 - - - -
01/06:30pm 14.3 NNW 7 8 1025.4 - 0.2 - Cloudy 10 - - - -
01/06:00pm 12.9 NNW 6 7 1025.3 - 0.2 - Mostly cloudy 10 - - - -
01/05:30pm 12.4 NNW 6 6 1024.8 - 0.2 - Partly cloudy 10 - - - -
01/05:00pm 14.0 N 7 7 1024.6 - 0.2 - Partly cloudy 10 - - - -
01/04:30pm 16.0 NNW 6 7 1024.6 - 0.2 - Partly cloudy 10 - - - -
01/04:00pm 16.9 NW 8 10 1024.6 - 0.2 - - 10 - - - -
01/03:30pm 17.2 NNW 7 9 1024.7 - 0.2 - Partly cloudy 10 - - - -
01/03:00pm 16.7 NW 8 10 1025.0 - 0.2 - Cloudy 10 - - - -
01/02:30pm 17.0 NW 8 10 1024.8 - 0.2 - Partly cloudy 10 - - - -
01/02:00pm 17.9 NW 10 14 1024.9 - 0.2 - Partly cloudy 10 - - - -
01/01:30pm 17.9 NNW 10 13 1024.8 - 0.2 - Mostly clear 10 - - - -
01/01:00pm 17.8 NW 11 13 1025.2 - 0.0 - Mostly clear 10 - - - -
01/12:30pm 16.7 NW 11 15 1025.4 - 0.0 - Partly cloudy 10 - - - -
01/12:00pm 17.2 NW 11 14 1026.0 - 0.0 - Mostly clear 10 - - - -
01/11:30am 16.3 NW 10 14 1026.1 - 0.0 - Mostly clear 10 - - - -
01/11:00am 15.6 NNW 10 14 1026.8 - 0.0 - Partly cloudy 10 - - - -
01/10:30am 15.1 NW 11 15 1027.0 - 0.0 - Mostly clear 10 - - - -
01/10:00am 13.8 NW 11 15 1027.2 - 0.0 - Mostly clear 10 - - - -
01/09:30am 13.0 NW 9 11 1027.1 - 0.0 - Mostly clear 10 - - - -
01/09:00am 12.0 NW 9 11 1027.1 - 0.0 - Mostly clear 10 - - - -
01/08:30am 10.6 NW 9 13 1026.8 - 0.0 - - 10 - - - -
01/08:00am 9.2 NW 9 11 1026.3 - 0.0 - - 10 - - - -
01/07:30am 8.9 NW 9 11 1026.0 - 0.0 - - 10 - - - -
01/07:00am 8.6 NW 9 11 1025.8 - 0.0 - - 10 - - - -
01/06:30am 8.2 NW 8 10 1025.7 - 0.0 - - 10 - - - -
01/06:00am 7.9 WNW 7 9 1026.1 - 0.0 - Mostly clear 10 - - - -
01/05:30am 7.9 NNW 6 8 1025.6 - 0.0 - Partly cloudy 10 - - - -
01/05:00am 8.1 NW 6 8 1025.5 - 0.0 - - 10 - - - -
01/04:30am 8.3 WNW 6 8 1025.4 - 0.0 - - 10 - - - -
01/04:00am 8.3 NW 6 8 1025.3 - 0.0 - - 10 - - - -
01/03:30am 9.1 WNW 6 7 1025.4 - 0.0 - Partly cloudy 10 - - - -
01/03:00am 9.4 NW 7 10 1025.6 - 0.0 - - 10 - - - -
01/02:30am 8.9 NW 6 7 1025.5 - 0.0 - - 10 - - - -
01/02:00am 8.1 NW 7 8 1025.5 - 0.0 - - 10 - - - -
01/01:30am 8.6 WNW 7 9 1025.4 - 0.0 - - 10 - - - -
01/01:00am 9.4 NW 8 9 1025.4 - 0.0 - Partly cloudy 10 - - - -
01/12:30am 10.1 NW 8 11 1025.5 - 0.0 - Partly cloudy 10 - - - -
01/12:00am 10.4 NW 9 11 1025.6 - 0.0 - - 10 - - - -
 
Date/Time
WST
Temp
°C
Wind Pressure Rain since
9am
mm
Weather Cloud Vis
km
Sea
Height
m
Swell
Dir  Spd
kts
Gust
kts
hPa Trend Height
m
Period
s
Dir
30/11:30pm 10.7 NNW 10 13 1025.4 - 0.0 - - 10 - - - -
30/11:00pm 10.9 NNW 9 12 1025.4 - 0.0 - - 10 - - - -
30/10:30pm 10.3 NW 7 9 1025.6 - 0.0 - - 10 - - - -
30/10:00pm 10.8 NW 7 9 1025.6 - 0.0 - - 10 - - - -
30/09:30pm 10.9 NNW 7 10 1025.6 - 0.0 - - 10 - - - -
30/09:00pm 10.4 NW 6 7 1025.7 - 0.0 - - 10 - - - -
30/08:30pm 9.8 NW 4 6 1025.5 - 0.0 - Partly cloudy 10 - - - -
30/08:00pm 10.1 N 4 5 1025.2 - 0.0 - Partly cloudy 10 - - - -
30/07:30pm 10.8 NNW 5 5 1025.2 - 0.0 - Partly cloudy 10 - - - -
30/07:00pm 11.3 WSW 4 5 1025.0 - 0.0 - Partly cloudy 10 - - - -
30/06:30pm 12.5 NNW 6 7 1024.6 - 0.0 - Partly cloudy 10 - - - -
30/06:00pm 12.7 NNW 7 9 1024.6 - 0.0 - Cloudy 10 - - - -
30/05:30pm 12.3 N 7 8 1024.0 - 0.0 - Partly cloudy 10 - - - -
30/05:00pm 12.7 NNW 6 7 1023.7 - 0.0 - Partly cloudy 10 - - - -
30/04:30pm 14.7 NW 6 7 1023.4 - 0.0 - Cloudy 10 - - - -
30/04:00pm 14.7 WNW 6 7 1023.2 - 0.0 - Partly cloudy 10 - - - -
30/03:30pm 15.0 WNW 6 8 1022.9 - 0.0 - Partly cloudy 10 - - - -
30/03:00pm 15.6 W 9 12 1022.9 - 0.0 - Mostly clear 10 - - - -
30/02:30pm 16.4 W 8 10 1022.5 - 0.0 - Mostly clear 10 - - - -
30/02:00pm 15.8 W 7 9 1022.6 - 0.0 - Mostly clear 10 - - - -
30/01:30pm 16.1 W 11 17 1022.8 - 0.0 - Mostly clear 10 - - - -
30/01:00pm 16.6 WNW 11 14 1023.0 - 0.0 - Mostly clear 10 - - - -
30/12:30pm 16.2 W 12 15 1023.4 - 0.0 - Mostly clear 10 - - - -
30/12:00pm 15.7 W 11 14 1024.1 - 0.0 - Partly cloudy 10 - - - -
30/11:30am 16.0 WNW 11 15 1024.3 - 0.0 - Mostly cloudy 10 - - - -
30/11:00am 15.3 WNW 11 14 1024.6 - 0.0 - Mostly clear 10 - - - -
30/10:30am 14.8 WNW 9 12 1024.8 - 0.0 - Mostly clear 10 - - - -
30/10:00am 13.8 WNW 10 13 1024.8 - 0.0 - Mostly clear 10 - - - -
30/09:30am 12.6 WNW 9 11 1024.7 - 0.0 - Mostly clear 10 - - - -
30/09:00am 11.6 NW 9 11 1024.7 - 1.6 - Mostly clear 10 - - - -
30/08:30am 10.1 NW 10 12 1024.3 - 1.6 - Mostly clear 10 - - - -
30/08:00am 8.9 NW 8 11 1024.3 - 1.6 - Mostly clear 10 - - - -
30/07:30am 8.2 NW 8 10 1024.0 - 1.6 - Mostly clear 10 - - - -
30/07:00am 8.2 NW 8 10 1023.7 - 1.6 - Partly cloudy 10 - - - -
30/06:30am 8.2 NW 8 10 1023.3 - 1.6 - - 10 - - - -
30/06:00am 8.3 NW 9 11 1023.2 - 1.6 - - 10 - - - -
30/05:30am 8.3 NW 8 11 1022.7 - 1.6 - - 10 - - - -
30/05:00am 8.9 NW 9 10 1022.6 - 1.6 - - 10 - - - -
30/04:30am 9.2 NW 10 11 1022.6 - 1.6 - Partly cloudy 10 - - - -
30/04:00am 9.2 NW 7 8 1022.5 - 1.6 - Partly cloudy 10 - - - -
30/03:30am 9.4 NW 8 10 1022.6 - 1.6 - Partly cloudy 10 - - - -
30/03:05am 9.8 NW 8 10 1022.5 - 1.6 - Partly cloudy 10 - - - -
30/03:00am 9.9 NW 9 11 1022.7 - 1.6 - Cloudy 10 - - - -
30/02:41am 10.1 WNW 12 17 1022.7 - 1.6 - Partly cloudy 6 - - - -
30/02:30am 9.9 NW 10 12 1022.6 - 1.6 - Partly cloudy 10 - - - -
30/02:27am 9.8 NW 10 11 1022.6 - 1.6 - Partly cloudy 10 - - - -
30/02:00am 9.9 WNW 9 11 1022.6 - 1.4 - Partly cloudy 5 - - - -
30/01:56am 9.9 WNW 8 11 1022.5 - 1.4 - Partly cloudy 6 - - - -
30/01:30am 9.1 NW 8 11 1022.1 - 1.4 - Partly cloudy 10 - - - -
30/01:00am 10.2 WNW 7 11 1022.1 - 1.4 - Partly cloudy 10 - - - -
30/12:30am 9.3 NW 8 10 1021.6 - 1.4 - Partly cloudy 10 - - - -
30/12:00am 9.6 WNW 7 10 1022.0 - 1.4 - Partly cloudy 10 - - - -
 
Date/Time
WST
Temp
°C
Wind Pressure Rain since
9am
mm
Weather Cloud Vis
km
Sea
Height
m
Swell
Dir  Spd
kts
Gust
kts
hPa Trend Height
m
Period
s
Dir
29/11:30pm 10.1 WNW 8 9 1021.6 - 1.4 - Partly cloudy 10 - - - -
29/11:00pm 11.0 WNW 9 11 1021.6 - 1.4 - Partly cloudy 10 - - - -
29/10:30pm 11.0 NW 8 11 1021.4 - 1.4 - Partly cloudy 10 - - - -
29/10:00pm 11.1 NW 7 9 1021.2 - 1.4 - Cloudy 10 - - - -
29/09:30pm 10.9 WNW 6 8 1021.1 - 1.4 - Cloudy 10 - - - -
29/09:00pm 11.0 NW 8 10 1021.1 - 1.4 - Cloudy 10 - - - -
29/08:30pm 10.3 WNW 8 11 1020.7 - 1.4 - Partly cloudy 10 - - - -
29/08:00pm 11.1 WNW 9 11 1020.5 - 1.4 - Partly cloudy 10 - - - -
29/07:30pm 10.7 WNW 8 9 1020.2 - 1.4 - Partly cloudy 10 - - - -
29/07:00pm 11.1 WNW 8 9 1019.8 - 1.4 - Partly cloudy 10 - - - -
29/06:30pm 12.1 W 9 14 1019.5 - 1.4 - Partly cloudy 10 - - - -
29/06:00pm 11.9 WNW 9 12 1019.3 - 1.4 - Mostly clear 10 - - - -
29/05:30pm 12.3 W 6 7 1018.8 - 1.4 - Partly cloudy 10 - - - -
29/05:00pm 13.2 WSW 11 14 1018.6 - 1.4 - Partly cloudy 10 - - - -
29/04:30pm 13.7 W 9 16 1018.0 - 1.4 - Partly cloudy 10 - - - -
29/04:00pm 14.4 W 11 17 1017.7 - 1.4 - Partly cloudy 10 - - - -
29/03:30pm 14.2 WSW 13 19 1017.3 - 1.4 - Cloudy 10 - - - -
29/03:00pm 14.4 WSW 15 21 1017.0 - 1.4 - Cloudy 10 - - - -
29/02:30pm 14.8 WSW 13 20 1016.3 - 1.4 - Mostly clear 10 - - - -
29/02:00pm 15.1 W 10 16 1016.1 - 1.4 - Mostly clear 10 - - - -

Other Formats:

Comma delimited format used in spreadsheet applications
http://www.bom.gov.au/fwo/IDW60701/IDW60701.94802.axf

JavaScript Object Notation format (JSON) in row-major order
http://www.bom.gov.au/fwo/IDW60701/IDW60701.94802.json